Time;durP1;ratioP1;P1;durP2;ratioP2;P2;SDS_P1;SDS_P2;PMS_P1;PMS_P2;Temp;Humidity;BMP_temperature;BMP_pressure;BME280_temperature;BME280_humidity;BME280_pressure;Samples;Min_cycle;Max_cycle;Signal;HPM_P1;HPM_P2
2021/07/27 00:00:58;;;;;;;7.05;5.35;;;18.40;85.40;;;17.34;83.85;95966.28;4983996;28;20058;-69
2021/07/27 00:03:25;;;;;;;8.02;4.85;;;18.30;85.70;;;17.29;83.47;95969.63;4986244;28;20120;-69
2021/07/27 00:05:52;;;;;;;10.82;6.50;;;18.20;85.70;;;17.29;84.06;95960.84;4988419;28;20034;-69
2021/07/27 00:08:18;;;;;;;8.52;6.65;;;18.30;85.70;;;17.24;84.38;95974.03;4987357;28;20410;-68
2021/07/27 00:10:44;;;;;;;9.95;5.85;;;18.10;86.00;;;17.21;84.60;95977.19;4970315;28;20030;-69
2021/07/27 00:13:10;;;;;;;11.73;5.43;;;18.10;86.10;;;17.19;84.09;95984.53;4955668;28;20057;-69
2021/07/27 00:15:35;;;;;;;9.27;5.35;;;18.10;86.20;;;17.15;84.00;95985.00;4985721;28;20057;-68
2021/07/27 00:18:01;;;;;;;9.27;5.63;;;18.10;86.20;;;17.14;84.50;95983.41;4983701;28;20062;-69
2021/07/27 00:20:27;;;;;;;7.78;4.70;;;18.20;86.10;;;17.17;84.42;95976.00;4986577;28;20042;-69
2021/07/27 00:22:52;;;;;;;10.23;5.32;;;18.20;85.80;;;17.15;83.89;95990.31;4958285;28;20054;-69
2021/07/27 00:25:18;;;;;;;7.88;5.35;;;18.20;85.70;;;17.16;84.70;95991.13;4954267;28;20046;-69
2021/07/27 00:27:45;;;;;;;7.20;5.32;;;18.20;85.60;;;17.14;83.88;95977.28;4954256;28;20038;-69
2021/07/27 00:30:11;;;;;;;6.28;5.50;;;18.20;85.50;;;17.15;84.59;95979.69;4970319;28;20034;-68
2021/07/27 00:32:41;;;;;;;7.57;5.40;;;18.30;85.50;;;17.18;84.36;95982.94;4972635;28;20045;-69
2021/07/27 00:35:09;;;;;;;6.23;5.07;;;18.30;85.50;;;17.16;83.79;95980.50;4969708;28;20045;-68
2021/07/27 00:37:35;;;;;;;7.63;5.60;;;18.30;85.50;;;17.15;84.26;95979.69;4984668;28;20113;-69
2021/07/27 00:40:02;;;;;;;9.35;5.32;;;18.20;85.50;;;17.12;84.55;95976.69;4985315;28;20811;-69
2021/07/27 00:42:30;;;;;;;6.68;5.22;;;18.10;86.00;;;17.11;84.68;95972.44;4984099;28;20030;-69
2021/07/27 00:44:56;;;;;;;7.28;5.07;;;18.10;86.10;;;17.12;84.63;95968.72;4953801;28;20045;-69
2021/07/27 00:47:22;;;;;;;9.73;5.70;;;18.20;85.80;;;17.12;84.45;95969.53;4987350;28;20522;-69
2021/07/27 00:49:48;;;;;;;8.77;5.45;;;18.20;85.50;;;17.13;84.09;95965.84;4970671;28;20477;-69
2021/07/27 00:52:13;;;;;;;7.95;5.50;;;18.20;85.50;;;17.13;84.53;95968.50;4968907;28;20695;-69
2021/07/27 00:54:39;;;;;;;8.40;5.10;;;18.30;85.40;;;17.13;84.39;95968.50;4971970;28;20034;-69
2021/07/27 00:57:05;;;;;;;13.70;5.47;;;18.30;85.30;;;17.13;84.30;95971.16;4955234;28;20457;-69
2021/07/27 00:59:31;;;;;;;7.72;4.75;;;18.20;85.40;;;17.11;84.84;95978.56;4974652;28;20049;-69
2021/07/27 01:01:56;;;;;;;7.25;4.63;;;18.20;85.60;;;17.12;84.43;95974.84;4973156;28;20067;-69
2021/07/27 01:04:22;;;;;;;7.07;4.80;;;18.20;85.60;;;17.11;84.32;95973.25;4985184;28;20072;-68
2021/07/27 01:06:48;;;;;;;5.95;4.50;;;18.20;85.60;;;17.11;84.97;95973.25;4969143;28;20487;-68
2021/07/27 01:09:15;;;;;;;9.27;5.07;;;18.20;85.50;;;17.11;84.60;95962.59;4950814;28;20065;-69
2021/07/27 01:11:41;;;;;;;9.35;4.60;;;18.30;85.30;;;17.13;84.64;95976.47;4964974;28;20721;-69
2021/07/27 01:14:07;;;;;;;9.82;5.03;;;18.20;85.30;;;17.13;84.64;95981.78;4968699;28;20038;-69
2021/07/27 01:16:35;;;;;;;10.05;5.10;;;18.30;85.20;;;17.13;83.89;95978.31;4954434;28;20482;-68
2021/07/27 01:40:44;;;;;;;8.13;4.55;;;18.20;85.10;;;17.04;84.08;95966.44;4966558;23;20055;-73
2021/07/27 01:43:10;;;;;;;6.13;4.45;;;18.10;85.00;;;17.05;84.46;95962.75;4942956;28;20698;-72
2021/07/27 01:45:36;;;;;;;6.63;5.10;;;18.20;84.90;;;17.04;84.31;95975.22;4963101;28;20031;-73
2021/07/27 01:48:01;;;;;;;12.13;5.10;;;18.20;84.80;;;16.99;83.96;95961.03;4966441;28;20484;-72
2021/07/27 01:50:27;;;;;;;9.15;4.60;;;18.20;84.80;;;17.01;84.69;95962.41;4963484;28;20035;-73
2021/07/27 01:53:03;;;;;;;5.30;4.80;;;18.20;84.80;;;16.98;84.14;95962.06;4947734;28;20130;-74
2021/07/27 01:55:32;;;;;;;10.38;4.93;;;18.10;84.70;;;16.95;84.26;95963.31;4932749;28;20455;-73
2021/07/27 01:57:58;;;;;;;6.55;4.80;;;18.10;84.70;;;16.95;83.95;95965.97;4932615;29;20058;-73
2021/07/27 02:00:24;;;;;;;6.68;4.95;;;18.10;84.80;;;16.93;84.29;95965.38;4937443;28;20043;-73
2021/07/27 02:02:49;;;;;;;6.40;5.50;;;18.10;84.60;;;16.91;84.15;95962.16;4925624;28;20137;-73
2021/07/27 02:05:16;;;;;;;7.85;5.80;;;18.10;84.80;;;16.90;84.33;95960.53;4932223;28;20086;-73
2021/07/27 02:07:55;;;;;;;7.22;5.60;;;18.10;84.90;;;16.89;84.82;95960.78;4947573;28;20035;-71
2021/07/27 02:10:21;;;;;;;10.15;5.60;;;18.10;84.90;;;16.87;84.18;95966.31;4935966;28;20031;-71
2021/07/27 02:13:01;;;;;;;6.78;4.75;;;18.00;84.90;;;16.87;84.69;95960.19;4952585;28;20039;-71
2021/07/27 02:15:42;;;;;;;7.90;5.00;;;18.00;85.10;;;16.86;85.28;95958.59;4954435;28;20046;-70
2021/07/27 02:18:08;;;;;;;5.65;4.80;;;18.00;85.00;;;16.81;83.92;95953.97;4947555;28;20123;-71
2021/07/27 02:20:34;;;;;;;6.03;4.82;;;18.00;84.90;;;16.75;84.51;95953.06;4920595;28;20026;-71
2021/07/27 02:23:04;;;;;;;8.35;4.93;;;17.90;85.10;;;16.75;84.22;95962.88;4954189;28;20086;-71
2021/07/27 02:25:30;;;;;;;6.72;5.00;;;17.80;85.30;;;16.75;84.40;95954.91;4917471;28;20050;-71
2021/07/27 02:27:58;;;;;;;5.95;4.72;;;17.80;85.40;;;16.72;84.22;95961.47;4946383;28;20024;-71
2021/07/27 02:30:33;;;;;;;7.90;5.28;;;17.80;85.30;;;16.71;85.01;95967.00;4944918;28;20982;-72
2021/07/27 02:32:59;;;;;;;6.05;4.38;;;17.80;85.40;;;16.71;84.14;95959.03;4931105;28;20054;-71
2021/07/27 02:35:27;;;;;;;6.38;4.25;;;17.90;85.30;;;16.69;84.81;95966.44;4929061;28;20052;-72
2021/07/27 02:37:52;;;;;;;6.80;4.50;;;17.90;85.10;;;16.66;84.78;95958.91;4947595;28;20035;-72
2021/07/27 02:40:18;;;;;;;5.90;4.47;;;17.90;85.00;;;16.69;84.90;95966.44;4928670;28;20032;-72
2021/07/27 02:42:44;;;;;;;8.20;4.95;;;17.90;84.80;;;16.68;84.60;95962.97;4915945;29;20071;-72
2021/07/27 02:45:11;;;;;;;8.65;4.53;;;17.90;84.70;;;16.70;84.31;95960.06;4931347;28;20062;-71
2021/07/27 02:47:41;;;;;;;11.93;4.70;;;17.90;84.70;;;16.69;84.46;95958.47;4948580;29;20031;-72
2021/07/27 02:50:10;;;;;;;10.73;4.68;;;17.90;84.50;;;16.66;84.67;95958.91;4948758;28;20046;-72
2021/07/27 02:52:41;;;;;;;5.07;4.15;;;18.00;84.40;;;16.64;84.22;95955.66;4948024;28;20034;-71
2021/07/27 02:55:08;;;;;;;10.65;4.70;;;17.90;84.30;;;16.60;84.27;95960.63;4932622;28;20065;-71
2021/07/27 02:57:34;;;;;;;8.27;4.43;;;17.90;84.20;;;16.59;84.37;95964.31;4953227;28;20045;-72
2021/07/27 03:00:00;;;;;;;7.38;4.40;;;17.80;84.20;;;16.58;84.48;95961.91;4919995;28;20032;-72
2021/07/27 03:02:39;;;;;;;11.27;4.97;;;17.80;84.30;;;16.58;85.41;95961.91;4925771;28;20047;-71
2021/07/27 03:05:06;;;;;;;8.40;4.90;;;17.80;84.30;;;16.56;84.46;95959.47;4935041;28;20051;-71
2021/07/27 03:07:47;;;;;;;8.90;5.07;;;17.80;84.40;;;16.54;84.76;95957.06;4917701;29;20055;-72
2021/07/27 03:10:17;;;;;;;6.47;4.53;;;17.80;84.30;;;16.53;85.07;95958.09;4948254;28;20039;-72
2021/07/27 03:12:46;;;;;;;7.38;4.85;;;17.80;84.30;;;16.49;84.77;95951.59;4952525;28;20031;-71
2021/07/27 03:15:14;;;;;;;16.77;5.22;;;17.80;84.30;;;16.52;84.10;95953.81;4966733;28;20059;-72
2021/07/27 03:17:40;;;;;;;5.70;4.82;;;17.80;84.40;;;16.51;84.69;95949.53;4941759;29;20082;-72
2021/07/27 03:20:09;;;;;;;8.82;5.05;;;17.80;84.30;;;16.52;84.86;95952.97;4948868;28;20027;-72
2021/07/27 03:22:35;;;;;;;8.43;5.40;;;17.80;84.20;;;16.48;84.22;95947.31;4964433;28;20043;-72
2021/07/27 03:25:01;;;;;;;9.27;4.85;;;17.80;84.40;;;16.48;84.24;95949.19;4943347;28;20484;-72
2021/07/27 03:27:27;;;;;;;6.60;5.22;;;17.70;84.30;;;16.48;84.70;95946.53;4931177;28;20040;-72
2021/07/27 03:29:52;;;;;;;7.32;5.07;;;17.70;84.30;;;16.44;84.56;95940.88;4949999;28;20522;-72
2021/07/27 03:32:18;;;;;;;12.80;5.38;;;17.70;84.40;;;16.44;84.15;95946.19;4948514;28;20027;-72
2021/07/27 03:34:44;;;;;;;8.98;5.55;;;17.80;84.40;;;16.44;84.44;95954.13;4951934;28;20093;-72
2021/07/27 03:37:13;;;;;;;9.88;5.22;;;17.70;84.40;;;16.44;84.40;95946.19;4951281;28;20496;-71
2021/07/27 03:39:39;;;;;;;7.45;5.47;;;17.70;84.50;;;16.45;84.20;95957.59;4964689;28;20032;-72
2021/07/27 03:42:05;;;;;;;9.38;5.30;;;17.70;84.40;;;16.44;84.18;95951.47;4940051;28;20059;-71
2021/07/27 03:44:30;;;;;;;9.68;5.25;;;17.70;84.30;;;16.41;83.94;95951.94;4951976;28;20126;-72
2021/07/27 03:47:06;;;;;;;7.45;4.93;;;17.60;84.40;;;16.41;84.61;95953.78;4951698;28;20028;-71
2021/07/27 03:49:31;;;;;;;7.85;5.00;;;17.60;84.40;;;16.36;84.09;95959.78;4934063;28;20486;-71
2021/07/27 03:52:01;;;;;;;5.60;4.78;;;17.60;84.10;;;16.37;84.27;95964.06;4954168;28;20043;-71
2021/07/27 03:54:32;;;;;;;9.23;5.25;;;17.60;84.10;;;16.36;84.41;95965.09;4949151;28;20071;-71
2021/07/27 03:56:58;;;;;;;8.13;4.85;;;17.60;84.10;;;16.35;84.06;95970.63;4900034;28;20043;-70
2021/07/27 03:59:23;;;;;;;6.82;5.30;;;17.60;84.20;;;16.35;84.82;95968.78;4934240;28;20569;-71
2021/07/27 04:01:50;;;;;;;7.72;5.18;;;17.60;84.40;;;16.35;84.86;95968.78;4956177;28;20419;-74
2021/07/27 04:04:18;;;;;;;6.47;4.60;;;17.60;84.50;;;16.35;83.90;95971.44;4950132;28;20039;-69
2021/07/27 04:06:45;;;;;;;9.65;5.43;;;17.60;84.50;;;16.33;85.03;95968.22;4940160;28;20122;-72
2021/07/27 04:09:11;;;;;;;5.90;5.05;;;17.70;84.50;;;16.36;84.41;95966.94;4949435;28;20511;-72
2021/07/27 04:11:37;;;;;;;6.88;4.82;;;17.70;84.40;;;16.37;85.11;95977.34;4931342;28;20075;-72
2021/07/27 04:14:03;;;;;;;9.40;5.35;;;17.70;84.60;;;16.39;84.51;95974.44;4925657;29;20035;-72
2021/07/27 04:16:29;;;;;;;10.05;5.30;;;17.60;84.50;;;16.41;84.43;95978.50;4963679;28;20044;-72
2021/07/27 04:18:55;;;;;;;6.78;5.35;;;17.70;84.50;;;16.39;84.55;95975.25;4945007;28;20538;-72
2021/07/27 04:21:21;;;;;;;8.68;5.40;;;17.70;84.60;;;16.39;84.97;95980.56;4935181;29;20080;-72
2021/07/27 04:23:46;;;;;;;5.22;4.68;;;17.60;84.80;;;16.39;84.60;95974.44;4951594;28;20469;-72
2021/07/27 04:26:12;;;;;;;6.13;5.47;;;17.60;84.80;;;16.38;84.24;95973.66;4938809;28;20077;-72
2021/07/27 04:28:38;;;;;;;9.73;5.18;;;17.60;84.80;;;16.37;84.83;95981.84;4922780;29;20113;-72
2021/07/27 04:31:03;;;;;;;5.68;5.10;;;17.60;84.70;;;16.34;84.89;95977.78;4935348;28;20504;-72
2021/07/27 04:33:29;;;;;;;26.10;22.63;;;17.60;85.00;;;16.35;84.89;95968.78;4951204;28;20066;-72
2021/07/27 04:35:55;;;;;;;16.45;9.82;;;17.60;85.00;;;16.37;84.47;95966.72;4957226;28;20034;-72
2021/07/27 04:38:21;;;;;;;9.15;6.40;;;17.70;84.90;;;16.39;85.13;95969.16;4931466;28;20115;-73
2021/07/27 04:40:50;;;;;;;9.45;5.95;;;17.60;85.00;;;16.38;85.33;95963.03;4948059;28;20082;-72
2021/07/27 04:43:16;;;;;;;6.63;5.05;;;17.70;84.90;;;16.40;85.11;95968.91;4935040;28;20032;-72
2021/07/27 04:45:41;;;;;;;8.88;5.68;;;17.70;84.80;;;16.41;85.23;95970.53;4961704;28;20675;-72
2021/07/27 04:48:07;;;;;;;9.98;6.43;;;17.80;84.70;;;16.41;85.73;95965.22;4954579;28;20038;-72
2021/07/27 04:50:33;;;;;;;8.82;5.60;;;17.70;84.60;;;16.45;84.96;95969.03;4934917;29;20039;-72
2021/07/27 04:53:08;;;;;;;7.15;5.60;;;17.80;84.60;;;16.46;85.05;95960.03;4954256;28;20094;-73
2021/07/27 04:55:34;;;;;;;7.93;5.45;;;17.80;84.50;;;16.45;85.28;95958.41;4922933;28;20118;-72
2021/07/27 04:58:09;;;;;;;9.95;5.60;;;17.80;84.60;;;16.49;85.57;95958.75;4936234;28;20170;-72
2021/07/27 05:00:34;;;;;;;10.32;5.93;;;17.90;84.40;;;16.49;85.09;95962.22;4969864;28;20093;-68
2021/07/27 05:03:01;;;;;;;7.82;5.45;;;17.80;84.30;;;16.45;85.16;95955.75;4935112;28;20036;-71
2021/07/27 05:05:26;;;;;;;7.85;5.30;;;17.90;84.30;;;16.53;85.04;95968.72;4951512;28;20027;-68
2021/07/27 05:07:52;;;;;;;7.68;5.18;;;17.90;84.20;;;16.53;84.98;95966.06;4955510;28;20039;-67
2021/07/27 05:10:18;;;;;;;8.07;5.47;;;17.90;84.20;;;16.54;84.90;95964.22;4953324;28;20038;-68
2021/07/27 05:12:44;;;;;;;6.60;5.03;;;17.90;83.90;;;16.53;84.84;95968.72;4958823;28;20047;-66
2021/07/27 05:15:10;;;;;;;5.95;4.93;;;17.90;84.00;;;16.53;84.43;95958.09;4950238;28;20043;-69
2021/07/27 05:17:37;;;;;;;6.25;4.90;;;17.90;83.90;;;16.53;84.87;95960.75;4934687;29;20040;-68
2021/07/27 05:20:03;;;;;;;5.43;4.63;;;17.90;83.90;;;16.52;84.99;95953.81;4947354;28;20466;-68
2021/07/27 05:22:29;;;;;;;6.50;5.15;;;17.90;84.00;;;16.52;84.81;95959.13;4940785;28;20035;-70
2021/07/27 05:24:55;;;;;;;7.22;5.43;;;17.90;83.90;;;16.52;84.36;95953.81;4955093;28;20062;-73
2021/07/27 05:27:22;;;;;;;6.63;5.13;;;17.90;83.90;;;16.53;84.69;95952.78;4933531;28;20049;-69
2021/07/27 05:29:48;;;;;;;7.82;5.63;;;18.00;83.60;;;16.54;84.70;95957.06;4938174;28;20053;-69
2021/07/27 05:32:14;;;;;;;8.30;5.20;;;17.90;83.60;;;16.54;84.64;95965.03;4905673;29;20708;-71
2021/07/27 05:34:40;;;;;;;7.38;5.03;;;18.00;83.80;;;16.58;84.72;95959.25;4915361;29;20067;-70
2021/07/27 05:37:06;;;;;;;5.38;4.88;;;18.10;83.80;;;16.63;84.93;95956.69;4928994;28;20106;-69
2021/07/27 05:39:32;;;;;;;5.38;4.80;;;18.10;83.90;;;16.69;85.18;95953.97;4947346;28;20523;-69
2021/07/27 05:41:57;;;;;;;8.07;5.15;;;18.20;84.10;;;16.77;85.35;95961.59;4933571;28;20047;-70
2021/07/27 05:44:26;;;;;;;6.38;5.38;;;18.30;84.10;;;16.86;85.05;95959.41;4947908;28;20627;-70
2021/07/27 05:46:55;;;;;;;9.13;5.88;;;18.40;84.10;;;16.93;85.80;95960.06;4953627;28;20047;-70
2021/07/27 05:49:21;;;;;;;7.50;5.80;;;18.50;83.80;;;16.97;84.60;95961.22;4949624;28;20102;-70
2021/07/27 05:51:48;;;;;;;8.73;5.30;;;18.50;82.90;;;17.04;85.10;95961.13;4925585;28;20030;-69
2021/07/27 05:54:14;;;;;;;8.40;5.55;;;18.60;83.40;;;17.12;84.82;95969.53;4934283;28;20059;-70
2021/07/27 05:56:40;;;;;;;6.45;5.03;;;18.60;82.80;;;17.14;84.83;95964.78;4951358;28;20031;-70
2021/07/27 05:59:05;;;;;;;8.05;5.65;;;18.70;83.10;;;17.27;85.23;95970.91;4933437;28;20031;-70
2021/07/27 06:01:31;;;;;;;7.28;5.00;;;19.00;82.80;;;17.38;84.43;95967.41;4949750;28;20035;-70
2021/07/27 06:03:57;;;;;;;8.05;5.13;;;19.10;81.70;;;17.48;84.34;95970.28;4949888;28;20223;-69
2021/07/27 06:06:23;;;;;;;8.27;4.10;;;19.10;81.10;;;17.56;83.91;95969.91;4946785;28;20095;-67
2021/07/27 06:08:48;;;;;;;6.53;4.72;;;19.30;81.20;;;17.69;83.61;95968.88;4938116;28;20039;-66
2021/07/27 06:11:14;;;;;;;7.90;4.28;;;19.50;80.50;;;17.81;83.89;95964.31;4957196;28;20070;-68
2021/07/27 06:13:40;;;;;;;5.80;4.13;;;19.70;80.10;;;17.93;83.83;95972.25;4969408;28;20569;-68
2021/07/27 06:16:06;;;;;;;5.70;3.97;;;19.90;79.40;;;18.04;83.34;95968.72;4935443;29;20134;-69
2021/07/27 06:18:33;;;;;;;5.70;4.28;;;20.00;78.70;;;18.19;82.46;95970.84;4933315;28;20051;-68
2021/07/27 06:20:59;;;;;;;7.03;4.50;;;20.20;77.80;;;18.27;82.34;95971.25;4943403;28;20032;-69
2021/07/27 06:23:25;;;;;;;4.95;3.83;;;20.60;77.10;;;18.41;82.14;95971.78;4931559;29;20043;-68
2021/07/27 06:25:51;;;;;;;6.03;3.60;;;20.90;75.80;;;18.53;82.17;95971.69;4952271;28;20139;-67
2021/07/27 06:28:16;;;;;;;5.90;4.18;;;21.00;75.70;;;18.62;81.93;95968.44;4944289;28;20399;-69
2021/07/27 06:30:42;;;;;;;7.85;4.00;;;21.00;75.20;;;18.79;80.29;95968.44;4951488;28;20063;-70
2021/07/27 06:33:08;;;;;;;10.27;3.95;;;21.00;74.30;;;18.88;80.60;95974.94;4952534;28;20054;-71
2021/07/27 06:35:33;;;;;;;7.28;4.25;;;20.90;74.00;;;18.98;80.36;95982.28;4952793;28;20078;-68
2021/07/27 06:37:59;;;;;;;6.07;4.15;;;21.10;74.00;;;19.12;80.27;95977.41;4933954;29;20035;-68
2021/07/27 06:40:25;;;;;;;4.90;4.07;;;21.30;74.60;;;19.26;80.42;95970.69;4933663;28;20063;-72
2021/07/27 06:42:50;;;;;;;6.70;3.97;;;21.60;74.50;;;19.44;79.97;95973.03;4943265;28;20078;-72
2021/07/27 06:45:16;;;;;;;7.30;4.10;;;21.80;74.80;;;19.61;80.04;95967.69;4943434;28;20368;-69
2021/07/27 06:47:42;;;;;;;6.32;4.30;;;22.00;72.20;;;19.78;79.72;95972.94;4929104;28;20034;-67
2021/07/27 06:50:09;;;;;;;5.22;4.07;;;22.20;72.10;;;19.96;78.87;95977.97;4953304;28;20111;-68
2021/07/27 06:52:34;;;;;;;5.57;3.42;;;22.50;71.30;;;20.13;77.80;95978.66;4969160;28;20039;-74
2021/07/27 06:55:00;;;;;;;4.43;3.40;;;22.60;69.90;;;20.28;77.73;95963.84;4933270;28;20033;-73
2021/07/27 06:57:29;;;;;;;8.90;4.03;;;22.70;69.40;;;20.53;75.54;95977.47;4964007;28;20035;-69
2021/07/27 06:59:55;;;;;;;6.22;3.90;;;23.00;68.50;;;20.73;76.37;95985.66;4952610;28;20031;-69
2021/07/27 07:02:20;;;;;;;6.13;4.07;;;23.10;68.10;;;20.93;75.25;95987.66;4922365;28;20067;-71
2021/07/27 07:04:46;;;;;;;6.15;3.80;;;23.30;67.60;;;21.06;74.36;95992.59;4951429;28;20047;-69
2021/07/27 07:07:12;;;;;;;6.25;3.75;;;23.20;66.80;;;21.23;74.79;96000.44;4951523;28;20062;-71
2021/07/27 07:09:37;;;;;;;5.85;3.63;;;23.70;66.90;;;21.40;73.71;96000.31;4951931;28;20031;-70
2021/07/27 07:12:08;;;;;;;5.55;3.30;;;23.90;65.00;;;21.57;72.74;96014.31;4967279;28;20042;-71
2021/07/27 07:14:33;;;;;;;6.93;3.72;;;24.20;64.90;;;21.79;72.75;96006.13;4938870;28;20434;-70
2021/07/27 07:16:59;;;;;;;7.60;4.10;;;24.50;62.60;;;21.97;72.56;96005.66;4948162;28;20035;-70
2021/07/27 07:19:25;;;;;;;5.68;3.60;;;24.80;62.60;;;22.19;72.21;96005.47;4934788;28;20039;-70
2021/07/27 07:21:51;;;;;;;9.05;3.85;;;25.10;62.40;;;22.41;71.10;96007.13;4956916;28;20136;-69
2021/07/27 07:24:16;;;;;;;6.45;3.72;;;25.40;60.80;;;22.55;71.46;96006.31;4950449;28;20035;-68
2021/07/27 07:26:42;;;;;;;5.03;3.97;;;25.40;61.80;;;22.71;70.89;96000.97;4952225;28;20432;-68
2021/07/27 07:29:08;;;;;;;5.57;3.78;;;25.70;60.30;;;22.84;70.31;96000.47;4935475;28;20039;-70
2021/07/27 07:31:33;;;;;;;7.32;4.30;;;25.90;59.80;;;22.96;69.48;96005.56;4952228;28;20051;-71
2021/07/27 07:33:59;;;;;;;6.63;3.60;;;25.70;58.60;;;23.09;69.43;95997.78;4932554;29;20039;-71
2021/07/27 07:36:25;;;;;;;4.53;3.58;;;26.10;57.70;;;23.19;68.87;95987.03;4968241;28;20039;-69
2021/07/27 07:38:51;;;;;;;4.88;3.70;;;26.30;58.70;;;23.37;69.00;95992.91;4935873;28;20106;-68
2021/07/27 07:41:16;;;;;;;5.05;3.67;;;26.50;58.30;;;23.47;68.94;95982.91;4950086;28;20035;-69
2021/07/27 07:43:42;;;;;;;6.53;3.53;;;26.70;57.80;;;23.61;68.51;95987.75;4953393;28;20058;-72
2021/07/27 07:46:08;;;;;;;5.05;3.05;;;26.90;55.90;;;23.77;67.93;95992.00;4951974;28;20054;-70
2021/07/27 07:48:34;;;;;;;4.85;3.10;;;27.20;55.20;;;23.93;67.54;95995.41;4953307;28;20051;-69
2021/07/27 07:51:00;;;;;;;5.18;3.25;;;27.40;55.30;;;24.07;66.50;95986.47;4950557;28;20035;-70
2021/07/27 07:53:25;;;;;;;3.92;3.17;;;27.60;53.40;;;24.26;66.09;95989.31;4915352;29;20062;-70
2021/07/27 07:55:51;;;;;;;4.65;3.10;;;27.90;53.80;;;24.41;66.74;95981.16;4940898;28;20105;-69
2021/07/27 07:58:17;;;;;;;7.53;3.30;;;28.20;54.20;;;24.59;66.54;95977.00;4965067;28;20039;-74
2021/07/27 08:00:42;;;;;;;7.60;3.40;;;28.30;54.40;;;24.77;66.16;95977.44;4966411;28;20039;-70
2021/07/27 08:03:08;;;;;;;9.68;3.22;;;28.50;53.60;;;24.96;65.67;95976.44;4920383;28;20053;-71
2021/07/27 08:05:34;;;;;;;7.15;3.60;;;28.70;52.90;;;25.16;65.01;95969.31;4945330;28;20028;-70
2021/07/27 08:08:00;;;;;;;4.40;2.90;;;28.80;50.50;;;25.29;64.19;95963.22;4918906;29;20471;-70
2021/07/27 08:10:26;;;;;;;6.72;3.58;;;28.70;49.80;;;25.27;62.67;95981.56;4933640;28;20486;-70
2021/07/27 08:12:52;;;;;;;4.88;3.50;;;28.10;50.10;;;25.16;62.07;95980.06;4919521;28;20035;-69
2021/07/27 08:15:18;;;;;;;5.03;3.25;;;27.70;50.70;;;25.22;61.45;95978.94;4955160;28;20720;-69
2021/07/27 08:17:44;;;;;;;6.25;3.20;;;28.10;50.10;;;25.36;61.34;95968.28;4934410;28;20503;-67
2021/07/27 08:20:10;;;;;;;7.38;2.55;;;28.50;50.40;;;25.61;61.71;95962.63;4933841;28;20036;-69
2021/07/27 08:22:40;;;;;;;5.50;2.85;;;29.10;50.50;;;25.95;60.88;95973.25;4915970;28;20036;-68
2021/07/27 08:25:07;;;;;;;5.50;2.95;;;29.60;50.90;;;26.29;61.21;95970.38;4967426;28;20045;-68
2021/07/27 08:27:33;;;;;;;8.27;2.92;;;30.00;48.60;;;26.63;60.91;95980.94;4954208;28;20916;-70
2021/07/27 08:29:59;;;;;;;4.68;3.00;;;30.40;47.30;;;27.00;59.77;95987.41;4923131;29;20039;-67
2021/07/27 08:32:25;;;;;;;5.85;3.10;;;30.60;45.60;;;27.28;59.12;95986.38;4934827;28;20039;-67
2021/07/27 08:34:50;;;;;;;6.30;3.20;;;30.80;46.10;;;27.60;57.72;95998.19;4924029;28;20122;-76
2021/07/27 08:37:16;;;;;;;3.55;2.63;;;31.10;44.20;;;27.85;56.81;96005.06;4907184;29;20086;-67
2021/07/27 08:39:42;;;;;;;5.40;2.75;;;31.00;45.00;;;28.04;56.09;96001.09;4948456;28;20039;-67
2021/07/27 08:42:08;;;;;;;3.25;2.40;;;31.40;42.50;;;28.31;55.98;95996.81;4946288;28;20082;-78
2021/07/27 08:44:35;;;;;;;4.15;2.53;;;31.70;43.50;;;28.56;54.10;96007.06;4951235;28;20052;-67
2021/07/27 08:47:02;;;;;;;4.40;2.63;;;31.80;42.80;;;28.75;53.71;96006.09;4968893;28;20415;-67
2021/07/27 08:49:29;;;;;;;4.57;2.70;;;31.60;41.80;;;28.93;52.57;95997.78;4932174;28;20061;-68
2021/07/27 08:51:55;;;;;;;3.55;2.90;;;31.80;42.00;;;29.17;52.08;95997.47;4931972;29;20031;-70
2021/07/27 08:54:21;;;;;;;4.40;2.83;;;32.30;41.50;;;29.33;51.36;95994.38;4952554;28;20415;-71
2021/07/27 08:56:51;;;;;;;5.60;2.53;;;32.50;40.20;;;29.57;48.73;96001.06;4937000;28;20043;-71
2021/07/27 08:59:17;;;;;;;5.55;3.00;;;32.50;40.90;;;29.80;50.33;95993.66;4970298;28;21245;-68
2021/07/27 09:01:43;;;;;;;3.97;2.78;;;32.70;41.70;;;30.01;49.61;95988.44;4935983;28;20435;-67
2021/07/27 09:04:10;;;;;;;4.68;2.75;;;33.10;39.10;;;30.20;49.42;95985.47;4923458;28;20122;-68
2021/07/27 09:06:37;;;;;;;4.35;2.50;;;33.30;39.80;;;30.33;48.01;95979.13;4949068;28;20043;-68
2021/07/27 09:09:10;;;;;;;3.53;2.72;;;33.30;37.00;;;30.20;44.74;95985.47;4947442;28;20039;-69
2021/07/27 09:11:46;;;;;;;3.85;2.47;;;32.60;39.10;;;30.13;45.80;95982.44;4952057;28;20031;-73
2021/07/27 09:14:16;;;;;;;3.72;2.72;;;33.00;39.80;;;30.16;46.35;95976.38;4917362;29;20050;-69
2021/07/27 09:16:50;;;;;;;5.43;2.88;;;32.70;39.90;;;30.15;45.50;95972.06;4934876;28;20039;-74
2021/07/27 09:19:16;;;;;;;6.68;2.50;;;32.60;39.20;;;30.20;47.87;95971.13;4933884;28;20043;-68
2021/07/27 09:21:46;;;;;;;4.70;2.97;;;32.80;40.00;;;30.00;45.10;95967.06;4952031;28;20057;-69
2021/07/27 09:24:20;;;;;;;3.67;2.78;;;32.20;38.80;;;29.74;45.23;95967.78;4958308;28;20123;-70
2021/07/27 09:27:05;;;;;;;3.47;2.45;;;31.60;41.10;;;29.42;45.74;95959.97;4966540;28;20039;-69
2021/07/27 09:29:31;;;;;;;4.75;2.85;;;31.10;43.00;;;29.18;47.64;95963.84;4932173;28;20392;-67
2021/07/27 09:32:00;;;;;;;7.53;2.92;;;31.30;41.40;;;29.11;47.38;95976.25;4948778;28;20038;-70
2021/07/27 09:34:27;;;;;;;3.42;2.63;;;31.60;42.00;;;29.24;48.42;95975.38;4924582;28;20046;-66
2021/07/27 09:37:08;;;;;;;3.80;2.63;;;32.00;42.80;;;29.51;45.82;95974.41;4918173;28;20577;-70
2021/07/27 09:39:35;;;;;;;5.22;2.30;;;32.50;39.60;;;29.78;47.50;95965.25;4933200;28;20050;-68
2021/07/27 09:42:09;;;;;;;4.80;2.80;;;33.00;39.90;;;29.98;44.09;95966.56;4932939;29;20039;-69
2021/07/27 09:44:37;;;;;;;3.92;2.53;;;32.50;38.20;;;29.94;45.74;95954.78;4932398;28;20066;-68
2021/07/27 09:47:03;;;;;;;4.38;2.22;;;32.40;39.20;;;29.81;46.42;95960.00;4948738;28;20044;-67
2021/07/27 09:49:28;;;;;;;6.80;2.40;;;32.00;40.20;;;29.60;46.62;95953.53;4928214;28;20552;-78
2021/07/27 09:51:56;;;;;;;6.10;3.03;;;31.90;40.60;;;29.65;46.45;95958.03;4914136;29;20039;-68
2021/07/27 09:54:23;;;;;;;4.47;2.60;;;32.50;39.10;;;29.91;45.52;95949.97;4931407;28;20047;-70
2021/07/27 09:56:53;;;;;;;5.75;2.85;;;33.10;37.70;;;30.13;44.69;95958.81;4949222;28;20356;-68
2021/07/27 09:59:20;;;;;;;4.78;2.80;;;32.90;36.90;;;30.25;45.50;95954.69;4930405;28;20036;-69
2021/07/27 10:01:56;;;;;;;4.25;2.88;;;33.10;39.10;;;30.46;43.84;95948.31;4917071;29;20059;-69
2021/07/27 10:04:37;;;;;;;4.97;2.53;;;33.80;37.70;;;30.74;43.52;95948.78;4961452;28;20411;-69
2021/07/27 10:07:06;;;;;;;5.13;2.90;;;34.50;37.00;;;31.15;42.74;95949.34;4938580;28;20411;-70
2021/07/27 10:09:33;;;;;;;4.05;2.70;;;35.10;34.80;;;31.41;44.55;95950.09;4921307;28;20098;-67
2021/07/27 10:12:10;;;;;;;3.65;2.60;;;35.20;34.70;;;31.62;41.91;95947.44;4925286;29;20031;-68
2021/07/27 10:14:44;;;;;;;5.15;2.58;;;35.20;34.80;;;31.84;41.72;95949.13;4952357;28;20456;-69
2021/07/27 10:17:11;;;;;;;3.42;2.47;;;35.40;35.20;;;32.07;43.97;95955.84;4949790;28;20565;-70
2021/07/27 10:19:39;;;;;;;4.15;2.83;;;35.80;35.30;;;32.40;42.08;95956.00;4928171;29;20039;-69
2021/07/27 10:22:09;;;;;;;2.88;2.30;;;36.10;32.90;;;32.72;39.18;95959.09;4942396;28;20058;-71
2021/07/27 10:24:45;;;;;;;;;;;36.30;32.80;;;32.92;37.30;95966.44;4926969;28;20526;-68
2021/07/27 10:27:29;;;;;;;8.07;2.60;;;36.40;30.40;;;33.03;37.68;95961.38;4958402;28;19976;-68
2021/07/27 10:30:09;;;;;;;3.30;2.13;;;36.10;30.80;;;33.14;36.63;95962.53;4960960;28;20109;-69
2021/07/27 10:32:35;;;;;;;3.13;2.58;;;36.20;30.00;;;33.18;38.89;95953.34;4937187;28;20130;-69
2021/07/27 10:35:24;;;;;;;5.30;2.60;;;36.20;30.40;;;33.11;36.97;95955.84;4952483;28;20031;-69
2021/07/27 10:37:50;;;;;;;4.25;2.63;;;36.30;30.20;;;33.24;39.35;95964.03;4968592;28;20062;-69
2021/07/27 10:40:28;;;;;;;4.15;2.60;;;36.50;32.30;;;33.32;36.53;95957.75;4946320;28;20122;-68